Rina Amoretti — IBRR — position and weather

sailwx.info

Track history (hours):
 
Tides and Currents Weather Stations Pressure Air Temp Water Temp Dewpoint Dewpoint Depression Visibility Wind Speed Wind Dir Waves Ship Positions

Rina Amoretti

Last reported at 2015-Jan-26 10:21 UTC. Time now 2015-Jan-28 16:19 UTC.
Position N 40°14' E 014°21'.

Length 220 m; draft 6 m.

Type: Ship (hazmat cat A). MMSI: 247197000.

Date/timePositionNaut miles runAvg speedWind from/ knotsBaromVisibWave heightAir tempDewpointWater temp
2015-Jan-26 10:21N 40°14' E 014°21'1012.7
2015-Jan-26 09:33N 40°23' E 014°15'1312.6
2015-Jan-26 08:33N 40°35' E 014°09'1413.6
2015-Jan-26 07:33N 40°47' E 014°17'3 0.8
2015-Jan-26 04:10N 40°50' E 014°17'0 0.0
2015-Jan-26 03:16N 40°50' E 014°17'0 0.0
2015-Jan-26 02:22N 40°50' E 014°17'0 0.0
2015-Jan-26 01:28N 40°50' E 014°17'0 0.0
2015-Jan-26 00:04N 40°50' E 014°17'0 0.0
2015-Jan-25 21:28N 40°50' E 014°17'0 0.0
2015-Jan-25 20:04N 40°50' E 014°17'0 0.0
2015-Jan-25 14:25N 40°50' E 014°17'0 0.0
2015-Jan-25 13:22N 40°50' E 014°17'0 0.0
2015-Jan-25 12:28N 40°50' E 014°17'0 0.0
2015-Jan-25 11:31N 40°50' E 014°17'0 0.0
2015-Jan-25 10:31N 40°50' E 014°17'0 0.0
2015-Jan-25 09:28N 40°50' E 014°17'0 0.0
2015-Jan-25 08:28N 40°50' E 014°17'1 0.9
2015-Jan-25 07:33N 40°50' E 014°18'2 1.6
2015-Jan-25 06:28N 40°48' E 014°20'0 0.0
2015-Jan-25 05:31N 40°48' E 014°20'0 0.1
2015-Jan-25 04:31N 40°48' E 014°20'0 0.0
2015-Jan-25 03:31N 40°48' E 014°20'0 0.0
2015-Jan-25 02:31N 40°48' E 014°20'0 0.0
2015-Jan-25 01:31N 40°48' E 014°20'0 0.0
2015-Jan-25 00:31N 40°48' E 014°20'0 0.0
2015-Jan-24 23:31N 40°48' E 014°20'0 0.0
2015-Jan-24 22:28N 40°48' E 014°20'0 0.0
2015-Jan-24 21:31N 40°48' E 014°20'0 0.0
2015-Jan-24 20:31N 40°48' E 014°20'0 0.0
2015-Jan-24 19:31N 40°48' E 014°20'0 0.0
2015-Jan-24 18:31N 40°48' E 014°20'0 0.0
2015-Jan-24 17:34N 40°48' E 014°19'1010.3
2015-Jan-24 16:34N 40°39' E 014°13'1212.1
2015-Jan-24 15:33N 40°27' E 014°12'1512.6
2015-Jan-24 14:20N 40°14' E 014°21'12612.2
2015-Jan-24 04:04N 38°24' E 015°39'711.9
2015-Jan-24 03:30N 38°17' E 015°42'1112.1
2015-Jan-24 02:33N 38°07' E 015°36'  
2015-Jan-20 09:12N 38°10' E 015°35'912.4
2015-Jan-20 08:30N 38°18' E 015°39'1213.1
2015-Jan-20 07:34N 38°19' E 015°24'1413.4
2015-Jan-20 06:32N 38°18' E 015°06'4113.3
2015-Jan-20 03:26N 38°13' E 014°14'1113.0
2015-Jan-20 02:34N 38°12' E 013°60'1313.2
2015-Jan-20 01:33N 38°11' E 013°43'8 8.3
2015-Jan-20 00:34N 38°09' E 013°33'6 5.8
2015-Jan-19 23:34N 38°06' E 013°26'0 0.0
2015-Jan-19 22:33N 38°06' E 013°26'0 0.0
2015-Jan-19 21:33N 38°06' E 013°26'0 0.0
2015-Jan-19 20:33N 38°06' E 013°26'0 0.0
2015-Jan-19 19:33N 38°06' E 013°26'0 0.0
2015-Jan-19 18:33N 38°06' E 013°26'0 0.0
2015-Jan-19 17:33N 38°06' E 013°26'0 0.0
2015-Jan-19 16:33N 38°06' E 013°26'0 0.0
2015-Jan-19 15:33N 38°06' E 013°26'0 0.0
2015-Jan-19 14:33N 38°06' E 013°26'0 0.0
2015-Jan-19 13:33N 38°06' E 013°26'0 0.0
2015-Jan-19 12:33N 38°06' E 013°26'0 0.0
2015-Jan-19 11:33N 38°06' E 013°26'0 0.0
2015-Jan-19 10:33N 38°06' E 013°26'0 0.0
2015-Jan-19 09:33N 38°06' E 013°26'0 0.0
2015-Jan-19 08:33N 38°06' E 013°26'0 0.5
2015-Jan-19 07:33N 38°06' E 013°27'1 1.0
2015-Jan-19 06:31N 38°07' E 013°26'0 0.0
2015-Jan-19 05:31N 38°07' E 013°26'0 0.0
2015-Jan-19 04:31N 38°07' E 013°26'0 0.0
2015-Jan-19 03:31N 38°07' E 013°26'0 0.0
2015-Jan-19 02:31N 38°07' E 013°26'0 0.0
2015-Jan-19 01:31N 38°07' E 013°26'0 0.0
2015-Jan-19 00:31N 38°07' E 013°26'0 0.0
2015-Jan-18 23:31N 38°07' E 013°26'0 0.0
2015-Jan-18 22:31N 38°07' E 013°26'0 0.0
2015-Jan-18 21:31N 38°07' E 013°26'0 0.0
2015-Jan-18 20:31N 38°07' E 013°26'0 0.1
2015-Jan-18 19:28N 38°07' E 013°26'0 0.2
2015-Jan-18 18:31N 38°07' E 013°26'0 0.0
2015-Jan-18 17:31N 38°07' E 013°26'0 0.1
2015-Jan-18 16:31N 38°07' E 013°26'0 0.1
2015-Jan-18 15:31N 38°07' E 013°26'0 0.0
2015-Jan-18 14:31N 38°07' E 013°26'0 0.0
2015-Jan-18 13:31N 38°07' E 013°26'0 0.0
2015-Jan-18 12:25N 38°07' E 013°26'0 0.0
2015-Jan-18 11:31N 38°07' E 013°26'0 0.0
2015-Jan-18 10:31N 38°07' E 013°26'0 0.2
2015-Jan-18 09:33N 38°07' E 013°26'10 9.8
2015-Jan-18 08:33N 38°10' E 013°38'1312.9
2015-Jan-18 07:33N 38°12' E 013°54'1413.2
2015-Jan-18 06:29N 38°13' E 014°12'1713.3
2015-Jan-18 05:10N 38°14' E 014°35'119 2.8
2015-Jan-16 10:26N 40°13' E 014°22'  
Track history (hours):
 
Tides and Currents Weather Stations Pressure Air Temp Water Temp Dewpoint Dewpoint Depression Visibility Wind Speed Wind Dir Waves Ship Positions

Rina Amoretti

Last reported at 2015-Jan-26 10:21 UTC. Time now 2015-Jan-28 16:19 UTC.
Position N 40°14' E 014°21'.

Length 220 m; draft 6 m.

Type: Ship (hazmat cat A). MMSI: 247197000.

Date/timePositionNaut miles runAvg speedWind from/ knotsBaromVisibWave heightAir tempDewpointWater temp
2015-Jan-26 10:21N 40°14' E 014°21'1012.7
2015-Jan-26 09:33N 40°23' E 014°15'1312.6
2015-Jan-26 08:33N 40°35' E 014°09'1413.6
2015-Jan-26 07:33N 40°47' E 014°17'3 0.8
2015-Jan-26 04:10N 40°50' E 014°17'0 0.0
2015-Jan-26 03:16N 40°50' E 014°17'0 0.0
2015-Jan-26 02:22N 40°50' E 014°17'0 0.0
2015-Jan-26 01:28N 40°50' E 014°17'0 0.0
2015-Jan-26 00:04N 40°50' E 014°17'0 0.0
2015-Jan-25 21:28N 40°50' E 014°17'0 0.0
2015-Jan-25 20:04N 40°50' E 014°17'0 0.0
2015-Jan-25 14:25N 40°50' E 014°17'0 0.0
2015-Jan-25 13:22N 40°50' E 014°17'0 0.0
2015-Jan-25 12:28N 40°50' E 014°17'0 0.0
2015-Jan-25 11:31N 40°50' E 014°17'0 0.0
2015-Jan-25 10:31N 40°50' E 014°17'0 0.0
2015-Jan-25 09:28N 40°50' E 014°17'0 0.0
2015-Jan-25 08:28N 40°50' E 014°17'1 0.9
2015-Jan-25 07:33N 40°50' E 014°18'2 1.6
2015-Jan-25 06:28N 40°48' E 014°20'0 0.0
2015-Jan-25 05:31N 40°48' E 014°20'0 0.1
2015-Jan-25 04:31N 40°48' E 014°20'0 0.0
2015-Jan-25 03:31N 40°48' E 014°20'0 0.0
2015-Jan-25 02:31N 40°48' E 014°20'0 0.0
2015-Jan-25 01:31N 40°48' E 014°20'0 0.0
2015-Jan-25 00:31N 40°48' E 014°20'0 0.0
2015-Jan-24 23:31N 40°48' E 014°20'0 0.0
2015-Jan-24 22:28N 40°48' E 014°20'0 0.0
2015-Jan-24 21:31N 40°48' E 014°20'0 0.0
2015-Jan-24 20:31N 40°48' E 014°20'0 0.0
2015-Jan-24 19:31N 40°48' E 014°20'0 0.0
2015-Jan-24 18:31N 40°48' E 014°20'0 0.0
2015-Jan-24 17:34N 40°48' E 014°19'1010.3
2015-Jan-24 16:34N 40°39' E 014°13'1212.1
2015-Jan-24 15:33N 40°27' E 014°12'1512.6
2015-Jan-24 14:20N 40°14' E 014°21'12612.2
2015-Jan-24 04:04N 38°24' E 015°39'711.9
2015-Jan-24 03:30N 38°17' E 015°42'1112.1
2015-Jan-24 02:33N 38°07' E 015°36'  
2015-Jan-20 09:12N 38°10' E 015°35'912.4
2015-Jan-20 08:30N 38°18' E 015°39'1213.1
2015-Jan-20 07:34N 38°19' E 015°24'1413.4
2015-Jan-20 06:32N 38°18' E 015°06'4113.3
2015-Jan-20 03:26N 38°13' E 014°14'1113.0
2015-Jan-20 02:34N 38°12' E 013°60'1313.2
2015-Jan-20 01:33N 38°11' E 013°43'8 8.3
2015-Jan-20 00:34N 38°09' E 013°33'6 5.8
2015-Jan-19 23:34N 38°06' E 013°26'0 0.0
2015-Jan-19 22:33N 38°06' E 013°26'0 0.0
2015-Jan-19 21:33N 38°06' E 013°26'0 0.0
2015-Jan-19 20:33N 38°06' E 013°26'0 0.0
2015-Jan-19 19:33N 38°06' E 013°26'0 0.0
2015-Jan-19 18:33N 38°06' E 013°26'0 0.0
2015-Jan-19 17:33N 38°06' E 013°26'0 0.0
2015-Jan-19 16:33N 38°06' E 013°26'0 0.0
2015-Jan-19 15:33N 38°06' E 013°26'0 0.0
2015-Jan-19 14:33N 38°06' E 013°26'0 0.0
2015-Jan-19 13:33N 38°06' E 013°26'0 0.0
2015-Jan-19 12:33N 38°06' E 013°26'0 0.0
2015-Jan-19 11:33N 38°06' E 013°26'0 0.0
2015-Jan-19 10:33N 38°06' E 013°26'0 0.0
2015-Jan-19 09:33N 38°06' E 013°26'0 0.0
2015-Jan-19 08:33N 38°06' E 013°26'0 0.5
2015-Jan-19 07:33N 38°06' E 013°27'1 1.0
2015-Jan-19 06:31N 38°07' E 013°26'0 0.0
2015-Jan-19 05:31N 38°07' E 013°26'0 0.0
2015-Jan-19 04:31N 38°07' E 013°26'0 0.0
2015-Jan-19 03:31N 38°07' E 013°26'0 0.0
2015-Jan-19 02:31N 38°07' E 013°26'0 0.0
2015-Jan-19 01:31N 38°07' E 013°26'0 0.0
2015-Jan-19 00:31N 38°07' E 013°26'0 0.0
2015-Jan-18 23:31N 38°07' E 013°26'0 0.0
2015-Jan-18 22:31N 38°07' E 013°26'0 0.0
2015-Jan-18 21:31N 38°07' E 013°26'0 0.0
2015-Jan-18 20:31N 38°07' E 013°26'0 0.1
2015-Jan-18 19:28N 38°07' E 013°26'0 0.2
2015-Jan-18 18:31N 38°07' E 013°26'0 0.0
2015-Jan-18 17:31N 38°07' E 013°26'0 0.1
2015-Jan-18 16:31N 38°07' E 013°26'0 0.1
2015-Jan-18 15:31N 38°07' E 013°26'0 0.0
2015-Jan-18 14:31N 38°07' E 013°26'0 0.0
2015-Jan-18 13:31N 38°07' E 013°26'0 0.0
2015-Jan-18 12:25N 38°07' E 013°26'0 0.0
2015-Jan-18 11:31N 38°07' E 013°26'0 0.0
2015-Jan-18 10:31N 38°07' E 013°26'0 0.2
2015-Jan-18 09:33N 38°07' E 013°26'10 9.8
2015-Jan-18 08:33N 38°10' E 013°38'1312.9
2015-Jan-18 07:33N 38°12' E 013°54'1413.2
2015-Jan-18 06:29N 38°13' E 014°12'1713.3
2015-Jan-18 05:10N 38°14' E 014°35'119 2.8
2015-Jan-16 10:26N 40°13' E 014°22'  

Dump ship's entire track history